sensor_id;sensor_type;location;lat;lon;timestamp;P1;durP1;ratioP1;P2;durP2;ratioP2
75087;SDS011;63664;44.868;40.600;2023-04-16T00:01:55;7.63;;;4.22;;
75087;SDS011;63664;44.868;40.600;2023-04-16T00:04:22;11.52;;;4.50;;
75087;SDS011;63664;44.868;40.600;2023-04-16T00:06:49;10.98;;;5.57;;
75087;SDS011;63664;44.868;40.600;2023-04-16T00:09:15;8.38;;;4.82;;
75087;SDS011;63664;44.868;40.600;2023-04-16T00:11:41;8.93;;;4.78;;
75087;SDS011;63664;44.868;40.600;2023-04-16T00:14:07;8.48;;;4.43;;
75087;SDS011;63664;44.868;40.600;2023-04-16T00:16:34;6.57;;;3.72;;
75087;SDS011;63664;44.868;40.600;2023-04-16T00:19:00;13.60;;;4.93;;
75087;SDS011;63664;44.868;40.600;2023-04-16T00:21:26;11.70;;;5.10;;
75087;SDS011;63664;44.868;40.600;2023-04-16T00:23:52;12.55;;;4.93;;
75087;SDS011;63664;44.868;40.600;2023-04-16T00:26:19;10.02;;;4.63;;
75087;SDS011;63664;44.868;40.600;2023-04-16T00:28:46;9.95;;;4.50;;
75087;SDS011;63664;44.868;40.600;2023-04-16T00:31:13;9.75;;;3.95;;
75087;SDS011;63664;44.868;40.600;2023-04-16T00:33:39;9.57;;;4.95;;
75087;SDS011;63664;44.868;40.600;2023-04-16T00:36:06;12.43;;;5.60;;
75087;SDS011;63664;44.868;40.600;2023-04-16T00:38:32;11.38;;;5.30;;
75087;SDS011;63664;44.868;40.600;2023-04-16T00:40:58;9.48;;;4.95;;
75087;SDS011;63664;44.868;40.600;2023-04-16T00:43:25;10.10;;;4.75;;
75087;SDS011;63664;44.868;40.600;2023-04-16T00:45:52;12.10;;;5.60;;
75087;SDS011;63664;44.868;40.600;2023-04-16T00:48:21;12.20;;;5.50;;
75087;SDS011;63664;44.868;40.600;2023-04-16T00:50:47;11.35;;;5.47;;
75087;SDS011;63664;44.868;40.600;2023-04-16T00:53:14;10.10;;;5.32;;
75087;SDS011;63664;44.868;40.600;2023-04-16T00:55:40;11.35;;;6.32;;
75087;SDS011;63664;44.868;40.600;2023-04-16T00:58:07;9.98;;;6.00;;
75087;SDS011;63664;44.868;40.600;2023-04-16T01:00:33;9.80;;;5.55;;
75087;SDS011;63664;44.868;40.600;2023-04-16T01:03:00;9.30;;;5.32;;
75087;SDS011;63664;44.868;40.600;2023-04-16T01:05:26;9.60;;;5.25;;
75087;SDS011;63664;44.868;40.600;2023-04-16T01:07:53;9.05;;;5.47;;
75087;SDS011;63664;44.868;40.600;2023-04-16T01:10:25;5.88;;;3.63;;
75087;SDS011;63664;44.868;40.600;2023-04-16T01:12:51;9.35;;;4.78;;
75087;SDS011;63664;44.868;40.600;2023-04-16T01:15:18;11.07;;;5.47;;
75087;SDS011;63664;44.868;40.600;2023-04-16T01:17:44;8.63;;;4.75;;
75087;SDS011;63664;44.868;40.600;2023-04-16T01:20:11;10.77;;;5.68;;
75087;SDS011;63664;44.868;40.600;2023-04-16T01:22:38;9.60;;;4.93;;
75087;SDS011;63664;44.868;40.600;2023-04-16T01:25:04;9.27;;;5.32;;
75087;SDS011;63664;44.868;40.600;2023-04-16T01:27:30;11.02;;;5.85;;
75087;SDS011;63664;44.868;40.600;2023-04-16T01:29:57;8.85;;;4.85;;
75087;SDS011;63664;44.868;40.600;2023-04-16T01:32:36;9.55;;;4.82;;
75087;SDS011;63664;44.868;40.600;2023-04-16T01:35:03;10.50;;;5.32;;
75087;SDS011;63664;44.868;40.600;2023-04-16T01:37:29;12.10;;;5.53;;
75087;SDS011;63664;44.868;40.600;2023-04-16T01:39:56;13.07;;;4.57;;
75087;SDS011;63664;44.868;40.600;2023-04-16T01:42:22;10.30;;;5.25;;
75087;SDS011;63664;44.868;40.600;2023-04-16T01:44:50;8.48;;;5.43;;
75087;SDS011;63664;44.868;40.600;2023-04-16T01:47:16;7.45;;;4.72;;
75087;SDS011;63664;44.868;40.600;2023-04-16T01:49:43;14.35;;;5.80;;
75087;SDS011;63664;44.868;40.600;2023-04-16T01:52:10;10.15;;;4.93;;
75087;SDS011;63664;44.868;40.600;2023-04-16T01:54:36;10.50;;;5.15;;
75087;SDS011;63664;44.868;40.600;2023-04-16T01:57:03;10.77;;;5.65;;
75087;SDS011;63664;44.868;40.600;2023-04-16T01:59:29;10.48;;;5.25;;
75087;SDS011;63664;44.868;40.600;2023-04-16T02:01:55;12.95;;;5.32;;
75087;SDS011;63664;44.868;40.600;2023-04-16T02:04:25;10.25;;;4.65;;
75087;SDS011;63664;44.868;40.600;2023-04-16T02:06:52;12.68;;;5.05;;
75087;SDS011;63664;44.868;40.600;2023-04-16T02:09:18;10.63;;;4.88;;
75087;SDS011;63664;44.868;40.600;2023-04-16T02:11:44;8.77;;;4.57;;
75087;SDS011;63664;44.868;40.600;2023-04-16T02:14:11;9.50;;;5.10;;
75087;SDS011;63664;44.868;40.600;2023-04-16T02:16:37;6.90;;;4.55;;
75087;SDS011;63664;44.868;40.600;2023-04-16T02:19:11;8.38;;;4.70;;
75087;SDS011;63664;44.868;40.600;2023-04-16T02:21:38;11.90;;;5.60;;
75087;SDS011;63664;44.868;40.600;2023-04-16T02:24:06;10.15;;;4.72;;
75087;SDS011;63664;44.868;40.600;2023-04-16T02:26:33;6.72;;;4.28;;
75087;SDS011;63664;44.868;40.600;2023-04-16T02:29:05;6.50;;;4.07;;
75087;SDS011;63664;44.868;40.600;2023-04-16T02:31:40;6.57;;;3.63;;
75087;SDS011;63664;44.868;40.600;2023-04-16T02:34:07;8.48;;;3.95;;
75087;SDS011;63664;44.868;40.600;2023-04-16T02:36:33;7.28;;;4.43;;
75087;SDS011;63664;44.868;40.600;2023-04-16T02:39:00;8.93;;;4.00;;
75087;SDS011;63664;44.868;40.600;2023-04-16T02:41:26;8.30;;;4.10;;
75087;SDS011;63664;44.868;40.600;2023-04-16T02:43:52;6.95;;;3.47;;
75087;SDS011;63664;44.868;40.600;2023-04-16T02:46:18;5.40;;;3.38;;
75087;SDS011;63664;44.868;40.600;2023-04-16T02:48:45;8.50;;;4.47;;
75087;SDS011;63664;44.868;40.600;2023-04-16T02:51:11;5.60;;;3.05;;
75087;SDS011;63664;44.868;40.600;2023-04-16T02:53:37;5.78;;;3.55;;
75087;SDS011;63664;44.868;40.600;2023-04-16T02:56:04;6.35;;;3.58;;
75087;SDS011;63664;44.868;40.600;2023-04-16T02:58:30;5.70;;;3.42;;
75087;SDS011;63664;44.868;40.600;2023-04-16T03:00:57;7.45;;;3.20;;
75087;SDS011;63664;44.868;40.600;2023-04-16T03:03:23;6.25;;;3.65;;
75087;SDS011;63664;44.868;40.600;2023-04-16T03:05:50;5.63;;;3.20;;
75087;SDS011;63664;44.868;40.600;2023-04-16T03:08:16;7.95;;;3.33;;
75087;SDS011;63664;44.868;40.600;2023-04-16T03:10:42;6.70;;;3.53;;
75087;SDS011;63664;44.868;40.600;2023-04-16T03:13:08;7.35;;;3.67;;
75087;SDS011;63664;44.868;40.600;2023-04-16T03:15:35;7.88;;;3.47;;
75087;SDS011;63664;44.868;40.600;2023-04-16T03:18:01;9.30;;;3.55;;
75087;SDS011;63664;44.868;40.600;2023-04-16T03:20:27;10.52;;;3.72;;
75087;SDS011;63664;44.868;40.600;2023-04-16T03:22:54;7.20;;;3.80;;
75087;SDS011;63664;44.868;40.600;2023-04-16T03:25:21;9.88;;;3.85;;
75087;SDS011;63664;44.868;40.600;2023-04-16T03:27:48;7.05;;;3.22;;
75087;SDS011;63664;44.868;40.600;2023-04-16T03:30:15;5.28;;;2.90;;
75087;SDS011;63664;44.868;40.600;2023-04-16T03:32:42;10.20;;;2.72;;
75087;SDS011;63664;44.868;40.600;2023-04-16T03:35:09;7.50;;;3.83;;
75087;SDS011;63664;44.868;40.600;2023-04-16T03:37:37;4.90;;;3.17;;
75087;SDS011;63664;44.868;40.600;2023-04-16T03:40:04;6.35;;;4.00;;
75087;SDS011;63664;44.868;40.600;2023-04-16T03:42:31;6.05;;;3.08;;
75087;SDS011;63664;44.868;40.600;2023-04-16T03:44:58;3.90;;;2.70;;
75087;SDS011;63664;44.868;40.600;2023-04-16T03:47:26;6.88;;;3.80;;
75087;SDS011;63664;44.868;40.600;2023-04-16T03:49:56;7.00;;;3.72;;
75087;SDS011;63664;44.868;40.600;2023-04-16T03:52:23;5.53;;;3.20;;
75087;SDS011;63664;44.868;40.600;2023-04-16T03:54:50;6.32;;;3.05;;
75087;SDS011;63664;44.868;40.600;2023-04-16T03:57:25;4.13;;;2.05;;
75087;SDS011;63664;44.868;40.600;2023-04-16T03:59:55;6.20;;;2.83;;
75087;SDS011;63664;44.868;40.600;2023-04-16T04:02:22;6.55;;;2.90;;
75087;SDS011;63664;44.868;40.600;2023-04-16T04:04:49;8.10;;;2.90;;
75087;SDS011;63664;44.868;40.600;2023-04-16T04:07:16;7.40;;;3.10;;
75087;SDS011;63664;44.868;40.600;2023-04-16T04:09:42;5.25;;;2.58;;
75087;SDS011;63664;44.868;40.600;2023-04-16T04:12:09;5.40;;;2.97;;
75087;SDS011;63664;44.868;40.600;2023-04-16T04:14:37;7.13;;;2.65;;
75087;SDS011;63664;44.868;40.600;2023-04-16T04:17:06;3.63;;;1.77;;
75087;SDS011;63664;44.868;40.600;2023-04-16T04:19:33;6.28;;;2.38;;
75087;SDS011;63664;44.868;40.600;2023-04-16T04:22:01;5.07;;;2.47;;
75087;SDS011;63664;44.868;40.600;2023-04-16T04:24:28;7.80;;;2.88;;
75087;SDS011;63664;44.868;40.600;2023-04-16T04:26:55;5.30;;;2.95;;
75087;SDS011;63664;44.868;40.600;2023-04-16T04:29:22;6.20;;;3.03;;
75087;SDS011;63664;44.868;40.600;2023-04-16T04:31:48;4.18;;;2.22;;
75087;SDS011;63664;44.868;40.600;2023-04-16T04:34:15;6.70;;;3.33;;
75087;SDS011;63664;44.868;40.600;2023-04-16T04:36:41;5.63;;;3.00;;
75087;SDS011;63664;44.868;40.600;2023-04-16T04:39:08;4.15;;;2.90;;
75087;SDS011;63664;44.868;40.600;2023-04-16T04:41:35;6.65;;;3.10;;
75087;SDS011;63664;44.868;40.600;2023-04-16T04:44:02;4.47;;;2.10;;
75087;SDS011;63664;44.868;40.600;2023-04-16T04:46:29;7.93;;;3.13;;
75087;SDS011;63664;44.868;40.600;2023-04-16T04:48:55;4.93;;;2.75;;
75087;SDS011;63664;44.868;40.600;2023-04-16T04:51:21;5.25;;;2.85;;
75087;SDS011;63664;44.868;40.600;2023-04-16T04:53:49;6.45;;;3.35;;
75087;SDS011;63664;44.868;40.600;2023-04-16T04:56:15;4.55;;;1.98;;
75087;SDS011;63664;44.868;40.600;2023-04-16T04:58:41;5.00;;;2.72;;
75087;SDS011;63664;44.868;40.600;2023-04-16T05:01:08;8.73;;;2.65;;
75087;SDS011;63664;44.868;40.600;2023-04-16T05:03:35;5.07;;;3.08;;
75087;SDS011;63664;44.868;40.600;2023-04-16T05:06:01;6.63;;;2.80;;
75087;SDS011;63664;44.868;40.600;2023-04-16T05:08:27;10.55;;;2.80;;
75087;SDS011;63664;44.868;40.600;2023-04-16T05:10:53;7.63;;;3.08;;
75087;SDS011;63664;44.868;40.600;2023-04-16T05:13:20;8.90;;;3.33;;
75087;SDS011;63664;44.868;40.600;2023-04-16T05:15:46;4.45;;;2.45;;
75087;SDS011;63664;44.868;40.600;2023-04-16T05:18:12;6.15;;;2.30;;
75087;SDS011;63664;44.868;40.600;2023-04-16T05:20:38;3.78;;;2.25;;
75087;SDS011;63664;44.868;40.600;2023-04-16T05:23:05;4.00;;;2.58;;
75087;SDS011;63664;44.868;40.600;2023-04-16T05:25:31;4.00;;;2.13;;
75087;SDS011;63664;44.868;40.600;2023-04-16T05:27:58;3.75;;;2.00;;
75087;SDS011;63664;44.868;40.600;2023-04-16T05:30:24;4.95;;;2.50;;
75087;SDS011;63664;44.868;40.600;2023-04-16T05:32:50;10.57;;;2.78;;
75087;SDS011;63664;44.868;40.600;2023-04-16T05:35:16;3.50;;;2.10;;
75087;SDS011;63664;44.868;40.600;2023-04-16T05:37:43;6.20;;;2.63;;
75087;SDS011;63664;44.868;40.600;2023-04-16T05:40:10;4.40;;;2.72;;
75087;SDS011;63664;44.868;40.600;2023-04-16T05:42:38;3.92;;;2.33;;
75087;SDS011;63664;44.868;40.600;2023-04-16T05:45:05;4.90;;;2.80;;
75087;SDS011;63664;44.868;40.600;2023-04-16T05:47:32;4.93;;;2.22;;
75087;SDS011;63664;44.868;40.600;2023-04-16T05:49:58;3.53;;;2.28;;
75087;SDS011;63664;44.868;40.600;2023-04-16T05:52:25;3.55;;;2.22;;
75087;SDS011;63664;44.868;40.600;2023-04-16T05:54:51;5.75;;;2.47;;
75087;SDS011;63664;44.868;40.600;2023-04-16T05:57:17;4.00;;;2.60;;
75087;SDS011;63664;44.868;40.600;2023-04-16T05:59:43;3.97;;;2.10;;
75087;SDS011;63664;44.868;40.600;2023-04-16T06:02:10;3.75;;;2.28;;
75087;SDS011;63664;44.868;40.600;2023-04-16T06:04:36;4.78;;;2.58;;
75087;SDS011;63664;44.868;40.600;2023-04-16T06:07:03;3.38;;;2.60;;
75087;SDS011;63664;44.868;40.600;2023-04-16T06:09:30;4.47;;;2.67;;
75087;SDS011;63664;44.868;40.600;2023-04-16T06:11:56;5.78;;;2.45;;
75087;SDS011;63664;44.868;40.600;2023-04-16T06:14:23;5.07;;;2.53;;
75087;SDS011;63664;44.868;40.600;2023-04-16T06:16:49;3.22;;;2.28;;
75087;SDS011;63664;44.868;40.600;2023-04-16T06:19:15;5.75;;;2.30;;
75087;SDS011;63664;44.868;40.600;2023-04-16T06:21:41;6.43;;;2.28;;
75087;SDS011;63664;44.868;40.600;2023-04-16T06:24:08;3.08;;;1.80;;
75087;SDS011;63664;44.868;40.600;2023-04-16T06:26:34;3.50;;;2.38;;
75087;SDS011;63664;44.868;40.600;2023-04-16T06:29:00;3.95;;;2.80;;
75087;SDS011;63664;44.868;40.600;2023-04-16T06:31:26;5.32;;;2.75;;
75087;SDS011;63664;44.868;40.600;2023-04-16T06:33:53;6.18;;;2.72;;
75087;SDS011;63664;44.868;40.600;2023-04-16T06:36:19;4.93;;;2.70;;
75087;SDS011;63664;44.868;40.600;2023-04-16T06:38:46;4.35;;;2.63;;
75087;SDS011;63664;44.868;40.600;2023-04-16T06:41:15;4.25;;;2.53;;
75087;SDS011;63664;44.868;40.600;2023-04-16T06:43:41;7.68;;;2.50;;
75087;SDS011;63664;44.868;40.600;2023-04-16T06:46:07;10.05;;;2.50;;
75087;SDS011;63664;44.868;40.600;2023-04-16T06:48:33;6.15;;;3.05;;
75087;SDS011;63664;44.868;40.600;2023-04-16T06:51:01;5.88;;;2.55;;
75087;SDS011;63664;44.868;40.600;2023-04-16T06:53:27;4.78;;;2.80;;
75087;SDS011;63664;44.868;40.600;2023-04-16T06:55:54;4.53;;;2.30;;
75087;SDS011;63664;44.868;40.600;2023-04-16T06:58:20;9.30;;;2.38;;
75087;SDS011;63664;44.868;40.600;2023-04-16T07:00:47;4.78;;;1.98;;
75087;SDS011;63664;44.868;40.600;2023-04-16T07:03:13;4.35;;;2.80;;
75087;SDS011;63664;44.868;40.600;2023-04-16T07:05:39;5.20;;;2.50;;
75087;SDS011;63664;44.868;40.600;2023-04-16T07:08:05;3.65;;;2.30;;
75087;SDS011;63664;44.868;40.600;2023-04-16T07:10:32;3.95;;;2.47;;
75087;SDS011;63664;44.868;40.600;2023-04-16T07:12:58;4.10;;;2.13;;
75087;SDS011;63664;44.868;40.600;2023-04-16T07:15:26;9.75;;;2.47;;
75087;SDS011;63664;44.868;40.600;2023-04-16T07:17:53;4.75;;;2.05;;
75087;SDS011;63664;44.868;40.600;2023-04-16T07:20:19;4.07;;;2.05;;
75087;SDS011;63664;44.868;40.600;2023-04-16T07:22:46;4.13;;;2.25;;
75087;SDS011;63664;44.868;40.600;2023-04-16T07:25:12;3.75;;;1.80;;
75087;SDS011;63664;44.868;40.600;2023-04-16T07:27:39;4.07;;;2.13;;
75087;SDS011;63664;44.868;40.600;2023-04-16T07:30:05;4.45;;;2.30;;
75087;SDS011;63664;44.868;40.600;2023-04-16T07:32:32;2.45;;;1.85;;
75087;SDS011;63664;44.868;40.600;2023-04-16T07:34:59;8.90;;;2.92;;
75087;SDS011;63664;44.868;40.600;2023-04-16T07:37:25;4.38;;;2.50;;
75087;SDS011;63664;44.868;40.600;2023-04-16T07:39:51;3.70;;;2.13;;
75087;SDS011;63664;44.868;40.600;2023-04-16T07:42:19;3.78;;;2.25;;
75087;SDS011;63664;44.868;40.600;2023-04-16T07:44:46;4.70;;;2.25;;
75087;SDS011;63664;44.868;40.600;2023-04-16T07:47:12;2.95;;;1.98;;
75087;SDS011;63664;44.868;40.600;2023-04-16T07:49:38;4.60;;;2.15;;
75087;SDS011;63664;44.868;40.600;2023-04-16T07:52:05;3.40;;;2.50;;
75087;SDS011;63664;44.868;40.600;2023-04-16T07:54:31;5.18;;;2.28;;
75087;SDS011;63664;44.868;40.600;2023-04-16T07:56:57;5.38;;;2.38;;
75087;SDS011;63664;44.868;40.600;2023-04-16T07:59:24;12.43;;;2.63;;
75087;SDS011;63664;44.868;40.600;2023-04-16T08:01:51;4.85;;;2.45;;
75087;SDS011;63664;44.868;40.600;2023-04-16T08:04:18;8.65;;;2.65;;
75087;SDS011;63664;44.868;40.600;2023-04-16T08:06:52;5.53;;;2.33;;
75087;SDS011;63664;44.868;40.600;2023-04-16T08:09:19;3.50;;;2.00;;
75087;SDS011;63664;44.868;40.600;2023-04-16T08:11:47;4.80;;;2.78;;
75087;SDS011;63664;44.868;40.600;2023-04-16T08:14:15;5.30;;;3.15;;
75087;SDS011;63664;44.868;40.600;2023-04-16T08:16:42;2.83;;;1.95;;
75087;SDS011;63664;44.868;40.600;2023-04-16T08:19:08;5.00;;;2.40;;
75087;SDS011;63664;44.868;40.600;2023-04-16T08:21:34;5.75;;;2.63;;
75087;SDS011;63664;44.868;40.600;2023-04-16T08:24:01;7.47;;;2.50;;
75087;SDS011;63664;44.868;40.600;2023-04-16T08:26:27;7.00;;;2.40;;
75087;SDS011;63664;44.868;40.600;2023-04-16T08:28:53;3.40;;;2.15;;
75087;SDS011;63664;44.868;40.600;2023-04-16T08:31:19;4.90;;;2.30;;
75087;SDS011;63664;44.868;40.600;2023-04-16T08:33:46;7.57;;;2.45;;
75087;SDS011;63664;44.868;40.600;2023-04-16T08:36:12;7.95;;;2.40;;
75087;SDS011;63664;44.868;40.600;2023-04-16T08:38:38;5.72;;;3.22;;
75087;SDS011;63664;44.868;40.600;2023-04-16T08:41:05;9.93;;;3.53;;
75087;SDS011;63664;44.868;40.600;2023-04-16T08:43:37;6.28;;;2.88;;
75087;SDS011;63664;44.868;40.600;2023-04-16T08:46:12;5.45;;;2.70;;
75087;SDS011;63664;44.868;40.600;2023-04-16T08:48:40;8.43;;;2.83;;
75087;SDS011;63664;44.868;40.600;2023-04-16T08:51:09;6.18;;;2.78;;
75087;SDS011;63664;44.868;40.600;2023-04-16T08:54:11;6.13;;;2.60;;
75087;SDS011;63664;44.868;40.600;2023-04-16T08:56:37;5.85;;;2.85;;
75087;SDS011;63664;44.868;40.600;2023-04-16T08:59:06;3.28;;;2.45;;
75087;SDS011;63664;44.868;40.600;2023-04-16T09:01:34;6.53;;;2.13;;
75087;SDS011;63664;44.868;40.600;2023-04-16T09:04:00;7.22;;;2.53;;
75087;SDS011;63664;44.868;40.600;2023-04-16T09:06:28;5.90;;;2.97;;
75087;SDS011;63664;44.868;40.600;2023-04-16T09:08:56;9.93;;;2.97;;
75087;SDS011;63664;44.868;40.600;2023-04-16T09:11:24;6.45;;;3.28;;
75087;SDS011;63664;44.868;40.600;2023-04-16T09:13:50;7.40;;;2.70;;
75087;SDS011;63664;44.868;40.600;2023-04-16T09:16:17;9.02;;;2.63;;
75087;SDS011;63664;44.868;40.600;2023-04-16T09:18:45;6.47;;;2.80;;
75087;SDS011;63664;44.868;40.600;2023-04-16T09:21:12;6.28;;;2.95;;
75087;SDS011;63664;44.868;40.600;2023-04-16T09:23:39;6.07;;;2.78;;
75087;SDS011;63664;44.868;40.600;2023-04-16T09:26:07;5.55;;;3.35;;
75087;SDS011;63664;44.868;40.600;2023-04-16T09:31:10;10.70;;;3.55;;
75087;SDS011;63664;44.868;40.600;2023-04-16T09:33:39;8.90;;;3.47;;
75087;SDS011;63664;44.868;40.600;2023-04-16T09:36:05;7.18;;;3.63;;
75087;SDS011;63664;44.868;40.600;2023-04-16T09:38:44;6.78;;;3.28;;
75087;SDS011;63664;44.868;40.600;2023-04-16T09:41:12;5.28;;;3.20;;
75087;SDS011;63664;44.868;40.600;2023-04-16T09:44:01;8.25;;;4.25;;
75087;SDS011;63664;44.868;40.600;2023-04-16T09:46:29;11.43;;;3.28;;
75087;SDS011;63664;44.868;40.600;2023-04-16T09:49:07;8.73;;;3.13;;
75087;SDS011;63664;44.868;40.600;2023-04-16T09:51:41;14.18;;;3.28;;
75087;SDS011;63664;44.868;40.600;2023-04-16T09:54:09;7.53;;;3.30;;
75087;SDS011;63664;44.868;40.600;2023-04-16T09:56:42;8.63;;;3.55;;
75087;SDS011;63664;44.868;40.600;2023-04-16T09:59:20;7.80;;;3.53;;
75087;SDS011;63664;44.868;40.600;2023-04-16T10:01:48;16.70;;;3.70;;
75087;SDS011;63664;44.868;40.600;2023-04-16T10:06:48;13.07;;;2.15;;
75087;SDS011;63664;44.868;40.600;2023-04-16T10:09:35;6.68;;;3.08;;
75087;SDS011;63664;44.868;40.600;2023-04-16T10:12:04;9.95;;;4.57;;
75087;SDS011;63664;44.868;40.600;2023-04-16T10:14:31;7.28;;;2.75;;
75087;SDS011;63664;44.868;40.600;2023-04-16T10:16:58;11.32;;;2.80;;
75087;SDS011;63664;44.868;40.600;2023-04-16T10:19:28;6.22;;;3.15;;
75087;SDS011;63664;44.868;40.600;2023-04-16T10:21:58;7.53;;;3.17;;
75087;SDS011;63664;44.868;40.600;2023-04-16T10:24:24;7.68;;;2.67;;
75087;SDS011;63664;44.868;40.600;2023-04-16T10:26:51;8.45;;;2.97;;
75087;SDS011;63664;44.868;40.600;2023-04-16T10:29:18;10.98;;;2.83;;
75087;SDS011;63664;44.868;40.600;2023-04-16T10:31:46;6.25;;;2.60;;
75087;SDS011;63664;44.868;40.600;2023-04-16T10:34:13;6.93;;;2.80;;
75087;SDS011;63664;44.868;40.600;2023-04-16T10:36:40;5.80;;;2.83;;
75087;SDS011;63664;44.868;40.600;2023-04-16T10:39:10;7.72;;;2.72;;
75087;SDS011;63664;44.868;40.600;2023-04-16T10:41:38;7.05;;;2.10;;
75087;SDS011;63664;44.868;40.600;2023-04-16T10:44:06;7.63;;;3.33;;
75087;SDS011;63664;44.868;40.600;2023-04-16T10:46:41;8.43;;;3.25;;
75087;SDS011;63664;44.868;40.600;2023-04-16T10:49:21;8.50;;;2.72;;
75087;SDS011;63664;44.868;40.600;2023-04-16T10:51:53;4.68;;;2.65;;
75087;SDS011;63664;44.868;40.600;2023-04-16T10:56:51;8.05;;;2.60;;
75087;SDS011;63664;44.868;40.600;2023-04-16T10:59:20;4.50;;;2.75;;
75087;SDS011;63664;44.868;40.600;2023-04-16T11:01:52;6.25;;;3.10;;
75087;SDS011;63664;44.868;40.600;2023-04-16T11:12:39;8.20;;;3.10;;
75087;SDS011;63664;44.868;40.600;2023-04-16T11:15:10;7.38;;;2.70;;
75087;SDS011;63664;44.868;40.600;2023-04-16T11:20:06;6.03;;;2.63;;
75087;SDS011;63664;44.868;40.600;2023-04-16T11:22:54;10.43;;;2.83;;
75087;SDS011;63664;44.868;40.600;2023-04-16T11:25:28;10.13;;;2.58;;
75087;SDS011;63664;44.868;40.600;2023-04-16T11:27:56;7.45;;;2.60;;
75087;SDS011;63664;44.868;40.600;2023-04-16T11:30:30;9.27;;;2.58;;
75087;SDS011;63664;44.868;40.600;2023-04-16T11:33:09;8.48;;;2.42;;
75087;SDS011;63664;44.868;40.600;2023-04-16T11:35:37;10.73;;;2.30;;
75087;SDS011;63664;44.868;40.600;2023-04-16T11:38:04;7.20;;;2.30;;
75087;SDS011;63664;44.868;40.600;2023-04-16T11:40:31;9.80;;;2.85;;
75087;SDS011;63664;44.868;40.600;2023-04-16T11:43:13;6.47;;;2.33;;
75087;SDS011;63664;44.868;40.600;2023-04-16T11:45:57;5.22;;;2.72;;
75087;SDS011;63664;44.868;40.600;2023-04-16T11:48:24;7.38;;;2.70;;
75087;SDS011;63664;44.868;40.600;2023-04-16T11:50:57;5.25;;;2.40;;
75087;SDS011;63664;44.868;40.600;2023-04-16T11:53:23;10.35;;;2.33;;
75087;SDS011;63664;44.868;40.600;2023-04-16T11:55:50;4.18;;;2.42;;
75087;SDS011;63664;44.868;40.600;2023-04-16T11:58:16;3.15;;;2.20;;
75087;SDS011;63664;44.868;40.600;2023-04-16T12:00:44;8.60;;;2.70;;
75087;SDS011;63664;44.868;40.600;2023-04-16T12:03:11;5.47;;;2.50;;
75087;SDS011;63664;44.868;40.600;2023-04-16T12:05:38;12.45;;;2.40;;
75087;SDS011;63664;44.868;40.600;2023-04-16T12:08:05;7.43;;;2.72;;
75087;SDS011;63664;44.868;40.600;2023-04-16T12:10:35;7.78;;;2.45;;
75087;SDS011;63664;44.868;40.600;2023-04-16T12:13:18;7.53;;;2.08;;
75087;SDS011;63664;44.868;40.600;2023-04-16T12:15:49;8.40;;;2.85;;
75087;SDS011;63664;44.868;40.600;2023-04-16T12:18:17;7.40;;;2.28;;
75087;SDS011;63664;44.868;40.600;2023-04-16T12:20:44;6.25;;;2.90;;
75087;SDS011;63664;44.868;40.600;2023-04-16T12:23:27;7.18;;;2.70;;
75087;SDS011;63664;44.868;40.600;2023-04-16T12:25:55;5.03;;;2.25;;
75087;SDS011;63664;44.868;40.600;2023-04-16T12:28:32;6.05;;;2.15;;
75087;SDS011;63664;44.868;40.600;2023-04-16T12:31:02;6.63;;;2.95;;
75087;SDS011;63664;44.868;40.600;2023-04-16T12:33:30;4.25;;;2.60;;
75087;SDS011;63664;44.868;40.600;2023-04-16T12:35:57;5.78;;;2.63;;
75087;SDS011;63664;44.868;40.600;2023-04-16T12:38:23;10.13;;;2.25;;
75087;SDS011;63664;44.868;40.600;2023-04-16T12:40:51;3.45;;;2.40;;
75087;SDS011;63664;44.868;40.600;2023-04-16T12:43:21;7.00;;;2.38;;
75087;SDS011;63664;44.868;40.600;2023-04-16T12:45:48;5.68;;;2.30;;
75087;SDS011;63664;44.868;40.600;2023-04-16T12:48:14;8.93;;;2.47;;
75087;SDS011;63664;44.868;40.600;2023-04-16T12:50:40;4.38;;;2.10;;
75087;SDS011;63664;44.868;40.600;2023-04-16T12:53:08;8.13;;;2.20;;
75087;SDS011;63664;44.868;40.600;2023-04-16T12:55:34;4.30;;;2.25;;
75087;SDS011;63664;44.868;40.600;2023-04-16T12:58:01;5.78;;;2.28;;
75087;SDS011;63664;44.868;40.600;2023-04-16T13:00:27;3.92;;;2.42;;
75087;SDS011;63664;44.868;40.600;2023-04-16T13:02:54;10.50;;;3.35;;
75087;SDS011;63664;44.868;40.600;2023-04-16T13:05:20;3.70;;;2.50;;
75087;SDS011;63664;44.868;40.600;2023-04-16T13:07:46;5.50;;;2.45;;
75087;SDS011;63664;44.868;40.600;2023-04-16T13:10:12;5.90;;;2.30;;
75087;SDS011;63664;44.868;40.600;2023-04-16T13:12:39;9.52;;;2.28;;
75087;SDS011;63664;44.868;40.600;2023-04-16T13:15:05;8.70;;;2.20;;
75087;SDS011;63664;44.868;40.600;2023-04-16T13:17:32;9.15;;;2.45;;
75087;SDS011;63664;44.868;40.600;2023-04-16T13:19:59;8.25;;;2.30;;
75087;SDS011;63664;44.868;40.600;2023-04-16T13:22:25;5.22;;;2.42;;
75087;SDS011;63664;44.868;40.600;2023-04-16T13:24:51;12.23;;;2.75;;
75087;SDS011;63664;44.868;40.600;2023-04-16T13:27:17;5.18;;;2.28;;
75087;SDS011;63664;44.868;40.600;2023-04-16T13:29:44;4.10;;;2.25;;
75087;SDS011;63664;44.868;40.600;2023-04-16T13:32:11;6.88;;;2.80;;
75087;SDS011;63664;44.868;40.600;2023-04-16T13:34:39;6.20;;;2.85;;
75087;SDS011;63664;44.868;40.600;2023-04-16T13:37:05;8.65;;;3.05;;
75087;SDS011;63664;44.868;40.600;2023-04-16T13:39:32;11.20;;;3.45;;
75087;SDS011;63664;44.868;40.600;2023-04-16T13:42:01;14.27;;;3.03;;
75087;SDS011;63664;44.868;40.600;2023-04-16T13:44:27;12.48;;;2.55;;
75087;SDS011;63664;44.868;40.600;2023-04-16T13:46:53;5.32;;;2.20;;
75087;SDS011;63664;44.868;40.600;2023-04-16T13:49:20;3.55;;;2.30;;
75087;SDS011;63664;44.868;40.600;2023-04-16T13:51:47;5.90;;;2.53;;
75087;SDS011;63664;44.868;40.600;2023-04-16T13:54:13;8.30;;;2.85;;
75087;SDS011;63664;44.868;40.600;2023-04-16T13:56:40;6.32;;;3.13;;
75087;SDS011;63664;44.868;40.600;2023-04-16T13:59:06;10.15;;;2.67;;
75087;SDS011;63664;44.868;40.600;2023-04-16T14:01:32;5.68;;;2.17;;
75087;SDS011;63664;44.868;40.600;2023-04-16T14:04:02;6.85;;;2.20;;
75087;SDS011;63664;44.868;40.600;2023-04-16T14:06:31;5.25;;;2.30;;
75087;SDS011;63664;44.868;40.600;2023-04-16T14:08:58;8.90;;;2.60;;
75087;SDS011;63664;44.868;40.600;2023-04-16T14:11:25;9.15;;;2.33;;
75087;SDS011;63664;44.868;40.600;2023-04-16T14:13:51;10.13;;;2.55;;
75087;SDS011;63664;44.868;40.600;2023-04-16T14:16:18;9.27;;;1.63;;
75087;SDS011;63664;44.868;40.600;2023-04-16T14:18:44;5.07;;;2.60;;
75087;SDS011;63664;44.868;40.600;2023-04-16T14:21:11;6.30;;;2.60;;
75087;SDS011;63664;44.868;40.600;2023-04-16T14:23:38;11.85;;;2.50;;
75087;SDS011;63664;44.868;40.600;2023-04-16T14:26:04;5.82;;;2.08;;
75087;SDS011;63664;44.868;40.600;2023-04-16T14:28:30;7.78;;;2.00;;
75087;SDS011;63664;44.868;40.600;2023-04-16T14:30:56;9.25;;;2.05;;
75087;SDS011;63664;44.868;40.600;2023-04-16T14:33:23;8.77;;;2.25;;
75087;SDS011;63664;44.868;40.600;2023-04-16T14:35:49;9.38;;;2.95;;
75087;SDS011;63664;44.868;40.600;2023-04-16T14:38:15;6.28;;;1.90;;
75087;SDS011;63664;44.868;40.600;2023-04-16T14:40:42;3.97;;;1.90;;
75087;SDS011;63664;44.868;40.600;2023-04-16T14:43:08;4.10;;;2.03;;
75087;SDS011;63664;44.868;40.600;2023-04-16T14:45:36;7.78;;;2.00;;
75087;SDS011;63664;44.868;40.600;2023-04-16T14:48:03;2.50;;;1.13;;
75087;SDS011;63664;44.868;40.600;2023-04-16T14:50:29;19.80;;;2.67;;
75087;SDS011;63664;44.868;40.600;2023-04-16T14:52:56;3.25;;;1.90;;
75087;SDS011;63664;44.868;40.600;2023-04-16T14:55:22;7.13;;;2.10;;